createdAt,value
2022-08-25T00:00:12.412Z,15.4
2022-08-25T00:03:13.856Z,15.3
2022-08-25T00:06:13.513Z,15.3
2022-08-25T00:09:11.335Z,15.3
2022-08-25T00:12:11.313Z,15.1
2022-08-25T00:15:11.309Z,15.1
2022-08-25T00:18:24.161Z,15.1
2022-08-25T00:21:11.302Z,15
2022-08-25T00:24:11.310Z,15
2022-08-25T00:27:11.335Z,15
2022-08-25T00:30:13.401Z,14.9
2022-08-25T00:33:11.302Z,14.9
2022-08-25T00:36:11.303Z,14.7
2022-08-25T00:39:11.301Z,14.7
2022-08-25T00:42:20.648Z,14.7
2022-08-25T00:45:11.539Z,14.6
2022-08-25T00:48:12.000Z,14.6
2022-08-25T00:51:11.296Z,14.6
2022-08-25T00:54:11.327Z,14.6
2022-08-25T00:57:11.416Z,14.6
2022-08-25T01:00:11.307Z,14.5
2022-08-25T01:03:11.786Z,14.5
2022-08-25T01:06:11.280Z,14.5
2022-08-25T01:09:11.328Z,14.5
2022-08-25T01:12:11.268Z,14.5
2022-08-25T01:15:11.300Z,14.5
2022-08-25T01:18:11.554Z,14.5
2022-08-25T01:21:14.419Z,14.5
2022-08-25T01:24:11.436Z,14.4
2022-08-25T01:27:14.562Z,14.4
2022-08-25T01:30:22.758Z,14.3
2022-08-25T01:33:11.402Z,14.3
2022-08-25T01:36:11.403Z,14.3
2022-08-25T01:39:11.466Z,14.4
2022-08-25T01:42:11.424Z,14.4
2022-08-25T01:45:11.438Z,14.4
2022-08-25T01:48:11.870Z,14.5
2022-08-25T01:51:11.358Z,14.6
2022-08-25T01:54:11.507Z,14.6
2022-08-25T01:57:11.350Z,14.7
2022-08-25T02:00:11.424Z,14.7
2022-08-25T02:03:25.099Z,14.9
2022-08-25T02:06:13.618Z,14.9
2022-08-25T02:09:11.316Z,15
2022-08-25T02:12:11.385Z,15
2022-08-25T02:15:11.494Z,15
2022-08-25T02:18:11.678Z,15
2022-08-25T02:21:11.343Z,15
2022-08-25T02:24:11.374Z,15
2022-08-25T02:27:11.416Z,15.1
2022-08-25T02:30:11.315Z,15.1
2022-08-25T02:33:11.366Z,15.1
2022-08-25T02:36:11.289Z,15
2022-08-25T02:39:12.709Z,15
2022-08-25T02:42:11.825Z,15
2022-08-25T02:45:11.337Z,15
2022-08-25T02:48:11.793Z,15
2022-08-25T02:51:11.331Z,15
2022-08-25T02:54:11.393Z,15
2022-08-25T02:57:11.290Z,14.9
2022-08-25T03:00:14.893Z,14.9
2022-08-25T03:03:11.460Z,14.9
2022-08-25T03:06:11.329Z,14.9
2022-08-25T03:09:11.375Z,14.7
2022-08-25T03:12:11.361Z,14.7
2022-08-25T03:15:20.319Z,14.7
2022-08-25T03:18:17.591Z,14.6
2022-08-25T03:21:11.295Z,14.6
2022-08-25T03:24:11.383Z,14.5
2022-08-25T03:27:11.288Z,14.5
2022-08-25T03:30:11.369Z,14.5
2022-08-25T03:33:11.304Z,14.5
2022-08-25T03:36:11.326Z,14.4
2022-08-25T03:39:11.470Z,14.4
2022-08-25T03:42:11.355Z,14.4
2022-08-25T03:45:11.353Z,14.4
2022-08-25T03:48:11.502Z,14.3
2022-08-25T03:51:11.346Z,14.3
2022-08-25T03:54:11.306Z,14.3
2022-08-25T03:57:11.331Z,14.3
2022-08-25T04:00:11.382Z,14.1
2022-08-25T04:03:11.322Z,14.1
2022-08-25T04:06:11.351Z,14.1
2022-08-25T04:09:11.327Z,14.1
2022-08-25T04:12:11.918Z,14.1
2022-08-25T04:15:11.317Z,14.1
2022-08-25T04:18:11.897Z,14.1
2022-08-25T04:21:11.582Z,14.3
2022-08-25T04:24:11.331Z,14.3
2022-08-25T04:27:11.343Z,14.5
2022-08-25T04:30:11.434Z,14.5
2022-08-25T04:33:11.370Z,14.6
2022-08-25T04:36:17.872Z,14.7
2022-08-25T04:39:13.305Z,14.9
2022-08-25T04:42:11.972Z,15
2022-08-25T04:45:11.606Z,15.1
2022-08-25T04:48:11.616Z,15.3
2022-08-25T04:51:11.316Z,15.4
2022-08-25T04:54:11.795Z,15.5
2022-08-25T04:57:11.469Z,15.6
2022-08-25T05:00:11.416Z,15.9
2022-08-25T05:03:12.140Z,16
2022-08-25T05:06:16.140Z,16.3
2022-08-25T05:09:14.372Z,16.4
2022-08-25T05:12:15.596Z,16.6
2022-08-25T05:15:11.386Z,16.8
2022-08-25T05:18:11.852Z,17
2022-08-25T05:21:11.353Z,17.2
2022-08-25T05:24:11.331Z,17.5
2022-08-25T05:27:11.358Z,17.8
2022-08-25T05:30:11.685Z,18
2022-08-25T05:33:11.337Z,18.4
2022-08-25T05:36:11.383Z,18.6
2022-08-25T05:39:11.370Z,19
2022-08-25T05:42:11.463Z,19.9
2022-08-25T05:45:20.325Z,22
2022-08-25T05:48:11.810Z,23.7
2022-08-25T05:51:12.995Z,25.1
2022-08-25T05:54:11.384Z,26.4
2022-08-25T05:57:11.324Z,27.5
2022-08-25T06:00:11.728Z,28.5
2022-08-25T06:03:11.356Z,29.5
2022-08-25T06:06:11.389Z,30.5
2022-08-25T06:09:11.306Z,31.4
2022-08-25T06:12:13.941Z,32.1
2022-08-25T06:15:11.369Z,33
2022-08-25T06:18:14.391Z,33.5
2022-08-25T06:21:11.431Z,34.1
2022-08-25T06:24:16.833Z,34.7
2022-08-25T06:27:11.379Z,35.4
2022-08-25T06:30:31.207Z,35.9
2022-08-25T06:33:12.484Z,36.4
2022-08-25T06:36:11.401Z,36.9
2022-08-25T06:39:14.750Z,37.2
2022-08-25T06:42:11.443Z,37.5
2022-08-25T06:45:11.370Z,38
2022-08-25T06:48:12.108Z,38.5
2022-08-25T06:51:16.261Z,38.9
2022-08-25T06:54:11.379Z,39.4
2022-08-25T06:57:12.706Z,39.9
2022-08-25T07:00:14.464Z,40.1
2022-08-25T07:03:15.273Z,40.4
2022-08-25T07:06:11.379Z,40.4
2022-08-25T07:09:11.393Z,40.5
2022-08-25T07:12:11.360Z,40.5
2022-08-25T07:15:31.433Z,40.8
2022-08-25T07:18:14.905Z,41
2022-08-25T07:21:15.644Z,41.1
2022-08-25T07:24:12.762Z,41.5
2022-08-25T07:27:11.369Z,41.7
2022-08-25T07:30:15.665Z,42.2
2022-08-25T07:33:20.621Z,43
2022-08-25T07:36:14.116Z,43.6
2022-08-25T07:39:11.332Z,44.2
2022-08-25T07:42:20.655Z,44.4
2022-08-25T07:45:13.647Z,44.1
2022-08-25T07:48:11.402Z,44
2022-08-25T07:51:19.580Z,44.4
2022-08-25T07:54:12.341Z,44.6
2022-08-25T07:57:11.444Z,44.7
2022-08-25T08:00:13.451Z,45.1
2022-08-25T08:03:53.110Z,45.5
2022-08-25T08:06:12.802Z,45.8
2022-08-25T08:09:11.981Z,46.1
2022-08-25T08:12:11.516Z,46.1
2022-08-25T08:15:16.781Z,46.1
2022-08-25T08:18:15.448Z,46.4
2022-08-25T08:21:13.587Z,46.5
2022-08-25T08:24:59.107Z,46.5
2022-08-25T08:27:11.699Z,47
2022-08-25T08:30:12.037Z,47.1
2022-08-25T08:33:23.875Z,47.4
2022-08-25T08:36:17.440Z,47.1
2022-08-25T08:39:13.385Z,47.6
2022-08-25T08:42:25.444Z,44.2
2022-08-25T08:45:18.222Z,45.8
2022-08-25T08:48:15.763Z,47
2022-08-25T08:51:19.462Z,46.9
2022-08-25T08:54:19.698Z,48.4
2022-08-25T08:57:11.451Z,48.7
2022-08-25T09:00:11.543Z,46.1
2022-08-25T09:03:13.995Z,44.4
2022-08-25T09:06:14.642Z,42.6
2022-08-25T09:09:15.379Z,41.4
2022-08-25T09:12:13.440Z,40
2022-08-25T09:15:25.264Z,38.9
2022-08-25T09:18:16.630Z,37.9
2022-08-25T09:21:13.942Z,38.4
2022-08-25T09:24:17.916Z,43
2022-08-25T09:27:13.068Z,42.7
2022-08-25T09:30:16.625Z,43.4
2022-08-25T09:33:12.542Z,41.5
2022-08-25T09:36:17.756Z,39.4
2022-08-25T09:39:16.411Z,38.1
2022-08-25T09:42:11.684Z,36.7
2022-08-25T09:45:12.700Z,35.6
2022-08-25T09:48:12.332Z,35.4
2022-08-25T09:51:12.427Z,37.1
2022-08-25T09:54:19.438Z,37.7
2022-08-25T09:57:21.294Z,38.2
2022-08-25T10:00:12.140Z,39.1
2022-08-25T10:03:17.644Z,37.9
2022-08-25T10:06:17.445Z,39.7
2022-08-25T10:09:14.524Z,39.1
2022-08-25T10:12:15.923Z,38.1
2022-08-25T10:15:13.030Z,39.2
2022-08-25T10:18:17.277Z,38.7
2022-08-25T10:21:15.950Z,40
2022-08-25T10:24:12.453Z,41.2
2022-08-25T10:27:11.897Z,45.2
2022-08-25T10:30:13.665Z,45.4
2022-08-25T10:33:12.051Z,42.5
2022-08-25T10:36:12.805Z,40.8
2022-08-25T10:39:47.059Z,39.1
2022-08-25T10:42:17.432Z,37.6
2022-08-25T10:45:24.117Z,36.7
2022-08-25T10:48:11.421Z,40.2
2022-08-25T10:51:14.637Z,42.5
2022-08-25T10:54:13.875Z,46.4
2022-08-25T10:57:18.631Z,43.1
2022-08-25T11:00:12.061Z,42.2
2022-08-25T11:03:12.013Z,44.5
2022-08-25T11:06:13.302Z,43.4
2022-08-25T11:09:14.603Z,44.4
2022-08-25T11:12:11.389Z,47.1
2022-08-25T11:15:15.645Z,47.6
2022-08-25T11:18:23.598Z,48.9
2022-08-25T11:21:12.932Z,47.4
2022-08-25T11:24:12.289Z,45.6
2022-08-25T11:27:15.949Z,46.1
2022-08-25T11:30:14.687Z,47.1
2022-08-25T11:33:14.651Z,49.5
2022-08-25T11:36:15.170Z,49.2
2022-08-25T11:39:12.699Z,48.7
2022-08-25T11:42:11.710Z,45.1
2022-08-25T11:45:12.625Z,43.7
2022-08-25T11:48:13.062Z,46.2
2022-08-25T11:51:15.828Z,48
2022-08-25T11:54:11.849Z,49
2022-08-25T11:57:13.246Z,49.9
2022-08-25T12:00:11.540Z,50.6
2022-08-25T12:03:15.972Z,51.1
2022-08-25T12:06:12.516Z,49.1
2022-08-25T12:09:11.672Z,46.7
2022-08-25T12:12:21.510Z,44
2022-08-25T12:15:12.682Z,43.4
2022-08-25T12:18:23.191Z,44.4
2022-08-25T12:21:12.103Z,47.5
2022-08-25T12:24:11.981Z,49.6
2022-08-25T12:27:15.208Z,47.9
2022-08-25T12:30:22.734Z,49.1
2022-08-25T12:33:14.088Z,50
2022-08-25T12:36:15.575Z,49.5
2022-08-25T12:39:17.635Z,48.7
2022-08-25T12:45:12.438Z,45.2
2022-08-25T12:48:15.974Z,47.7
2022-08-25T12:51:11.423Z,48.6
2022-08-25T12:54:22.396Z,49.5
2022-08-25T12:57:15.379Z,50.2
2022-08-25T13:00:16.902Z,50
2022-08-25T13:03:16.342Z,50
2022-08-25T13:06:17.271Z,50.5
2022-08-25T13:09:17.375Z,51.2
2022-08-25T13:12:14.199Z,51.4
2022-08-25T13:15:13.632Z,52.2
2022-08-25T13:18:12.493Z,52.9
2022-08-25T13:21:14.334Z,53
2022-08-25T13:24:16.819Z,53.1
2022-08-25T13:30:17.316Z,52
2022-08-25T13:33:22.268Z,51.6
2022-08-25T13:36:16.587Z,52.2
2022-08-25T13:39:13.597Z,53
2022-08-25T13:42:17.982Z,53.4
2022-08-25T13:45:11.728Z,48.3
2022-08-25T13:48:30.537Z,44.2
2022-08-25T13:51:13.095Z,41.9
2022-08-25T13:54:11.600Z,39.6
2022-08-25T13:57:14.870Z,39
2022-08-25T14:00:13.750Z,41.2
2022-08-25T14:03:32.235Z,39.5
2022-08-25T14:06:12.528Z,39.9
2022-08-25T14:09:14.224Z,41.7
2022-08-25T14:12:11.521Z,39.7
2022-08-25T14:15:11.496Z,38.4
2022-08-25T14:18:16.183Z,38
2022-08-25T14:21:13.335Z,41
2022-08-25T14:24:15.244Z,42.4
2022-08-25T14:27:14.030Z,43.6
2022-08-25T14:30:11.582Z,44.4
2022-08-25T14:33:13.264Z,45.1
2022-08-25T14:36:11.884Z,45.9
2022-08-25T14:39:15.083Z,46.4
2022-08-25T14:42:11.531Z,46.5
2022-08-25T14:45:13.364Z,47.4
2022-08-25T14:48:19.030Z,48
2022-08-25T14:51:11.549Z,48.1
2022-08-25T14:54:13.275Z,48
2022-08-25T14:57:14.914Z,46.7
2022-08-25T15:00:19.042Z,45.9
2022-08-25T15:03:12.768Z,44.1
2022-08-25T15:06:16.272Z,44.1
2022-08-25T15:09:12.154Z,43.1
2022-08-25T15:12:21.560Z,43
2022-08-25T15:15:11.435Z,43
2022-08-25T15:18:14.199Z,42.4
2022-08-25T15:21:13.120Z,41.5
2022-08-25T15:24:12.303Z,40.8
2022-08-25T15:27:16.461Z,40.2
2022-08-25T15:30:15.216Z,40.2
2022-08-25T15:33:14.788Z,40.6
2022-08-25T15:36:22.875Z,41.1
2022-08-25T15:39:13.170Z,40.5
2022-08-25T15:42:13.864Z,40.2
2022-08-25T15:45:13.784Z,39.9
2022-08-25T15:48:15.659Z,40.9
2022-08-25T15:51:15.895Z,41.7
2022-08-25T15:54:11.528Z,42
2022-08-25T15:57:30.595Z,42
2022-08-25T16:00:16.621Z,41.5
2022-08-25T16:03:14.674Z,41.4
2022-08-25T16:06:13.447Z,40.8
2022-08-25T16:09:14.605Z,40
2022-08-25T16:12:21.796Z,39.1
2022-08-25T16:15:14.328Z,38.9
2022-08-25T16:18:13.979Z,38.6
2022-08-25T16:21:21.214Z,38.2
2022-08-25T16:24:18.165Z,38
2022-08-25T16:27:22.788Z,37.7
2022-08-25T16:30:19.618Z,37.9
2022-08-25T16:33:19.286Z,38.1
2022-08-25T16:36:13.519Z,38.2
2022-08-25T16:39:18.414Z,37.7
2022-08-25T16:42:13.040Z,37
2022-08-25T16:45:13.959Z,36.2
2022-08-25T16:48:12.660Z,35.2
2022-08-25T16:51:12.962Z,34.1
2022-08-25T16:54:12.795Z,33.7
2022-08-25T16:57:11.456Z,33
2022-08-25T17:00:12.165Z,32
2022-08-25T17:03:11.356Z,31.4
2022-08-25T17:06:12.624Z,31.1
2022-08-25T17:09:13.508Z,30.5
2022-08-25T17:12:12.399Z,30.1
2022-08-25T17:15:15.273Z,29.6
2022-08-25T17:18:15.502Z,29.4
2022-08-25T17:21:16.137Z,29.1
2022-08-25T17:24:15.919Z,28.9
2022-08-25T17:27:13.262Z,28.7
2022-08-25T17:30:11.662Z,28.5
2022-08-25T17:33:12.543Z,28.4
2022-08-25T17:36:17.169Z,28.3
2022-08-25T17:39:12.101Z,28.1
2022-08-25T17:42:12.892Z,28
2022-08-25T17:45:13.550Z,27.9
2022-08-25T17:48:13.668Z,27.8
2022-08-25T17:51:12.545Z,27.6
2022-08-25T17:54:11.323Z,27.4
2022-08-25T17:57:11.796Z,27.2
2022-08-25T18:00:15.371Z,27
2022-08-25T18:03:11.870Z,26.9
2022-08-25T18:06:19.232Z,26.6
2022-08-25T18:09:13.065Z,26.5
2022-08-25T18:12:14.035Z,26.2
2022-08-25T18:15:12.451Z,26.1
2022-08-25T18:18:18.357Z,26
2022-08-25T18:21:13.312Z,25.9
2022-08-25T18:24:13.257Z,25.6
2022-08-25T18:27:12.988Z,25.5
2022-08-25T18:30:11.853Z,25.4
2022-08-25T18:33:12.622Z,25.3
2022-08-25T18:36:11.350Z,25.1
2022-08-25T18:39:13.571Z,25.1
2022-08-25T18:42:11.453Z,25
2022-08-25T18:45:16.553Z,25
2022-08-25T18:48:16.440Z,24.9
2022-08-25T18:51:14.667Z,24.9
2022-08-25T18:54:28.688Z,24.7
2022-08-25T18:57:15.260Z,24.6
2022-08-25T19:00:12.365Z,24.6
2022-08-25T19:03:14.800Z,24.5
2022-08-25T19:06:11.456Z,24.5
2022-08-25T19:09:11.406Z,24.4
2022-08-25T19:12:24.855Z,24.3
2022-08-25T19:15:14.335Z,24.3
2022-08-25T19:18:19.428Z,24.1
2022-08-25T19:21:12.562Z,24
2022-08-25T19:24:13.868Z,24
2022-08-25T19:27:17.248Z,24
2022-08-25T19:30:12.340Z,24
2022-08-25T19:33:48.059Z,24
2022-08-25T19:36:13.453Z,24
2022-08-25T19:39:11.376Z,24
2022-08-25T19:42:43.383Z,23.9
2022-08-25T19:45:11.858Z,24
2022-08-25T19:48:12.346Z,23.9
2022-08-25T19:51:21.709Z,23.9
2022-08-25T19:54:16.523Z,23.9
2022-08-25T19:57:42.238Z,23.9
2022-08-25T20:00:12.515Z,23.9
2022-08-25T20:03:13.765Z,23.7
2022-08-25T20:06:14.373Z,23.7
2022-08-25T20:09:42.611Z,23.9
2022-08-25T20:12:12.935Z,23.9
2022-08-25T20:15:11.407Z,23.7
2022-08-25T20:18:15.160Z,23.7
2022-08-25T20:21:13.741Z,23.7
2022-08-25T20:24:14.059Z,23.6
2022-08-25T20:27:11.759Z,23.6
2022-08-25T20:30:14.595Z,23.6
2022-08-25T20:33:24.757Z,23.5
2022-08-25T20:36:11.860Z,23.5
2022-08-25T20:39:11.962Z,23.5
2022-08-25T20:42:11.634Z,23.5
2022-08-25T20:45:12.101Z,23.5
2022-08-25T20:48:13.719Z,23.5
2022-08-25T20:51:12.836Z,23.4
2022-08-25T20:54:11.747Z,23.4
2022-08-25T20:57:17.746Z,23.3
2022-08-25T21:00:13.800Z,23
2022-08-25T21:03:13.522Z,22.9
2022-08-25T21:06:11.550Z,22.8
2022-08-25T21:09:19.958Z,22.6
2022-08-25T21:12:14.195Z,22.5
2022-08-25T21:15:13.511Z,22.4
2022-08-25T21:18:13.959Z,22.4
2022-08-25T21:21:15.451Z,22.2
2022-08-25T21:24:16.534Z,22.4
2022-08-25T21:27:13.193Z,22.4
2022-08-25T21:30:11.540Z,22.2
2022-08-25T21:33:12.143Z,22.2
2022-08-25T21:36:14.448Z,22.1
2022-08-25T21:39:12.004Z,22
2022-08-25T21:42:13.127Z,21.9
2022-08-25T21:45:23.791Z,21.8
2022-08-25T21:48:13.353Z,21.8
2022-08-25T21:51:13.340Z,21.6
2022-08-25T21:54:11.585Z,21.5
2022-08-25T21:57:11.333Z,21.4
2022-08-25T22:00:13.320Z,21.4
2022-08-25T22:03:11.579Z,21.2
2022-08-25T22:06:14.321Z,21.1
2022-08-25T22:09:12.936Z,20.9
2022-08-25T22:12:11.408Z,20.8
2022-08-25T22:15:16.696Z,20.6
2022-08-25T22:18:12.269Z,20.4
2022-08-25T22:21:19.723Z,20.4
2022-08-25T22:24:11.755Z,20.3
2022-08-25T22:27:25.489Z,20.1
2022-08-25T22:30:12.273Z,20.1
2022-08-25T22:33:15.443Z,20.1
2022-08-25T22:36:15.210Z,20.1
2022-08-25T22:39:11.411Z,20.1
2022-08-25T22:42:11.681Z,20
2022-08-25T22:45:12.612Z,20
2022-08-25T22:48:11.312Z,20
2022-08-25T22:51:13.656Z,19.9
2022-08-25T22:54:16.068Z,19.8
2022-08-25T22:57:20.968Z,19.8
2022-08-25T23:00:14.185Z,19.6
2022-08-25T23:03:15.770Z,19.6
2022-08-25T23:06:13.580Z,19.6
2022-08-25T23:09:12.918Z,19.6
2022-08-25T23:12:11.692Z,19.6
2022-08-25T23:15:14.251Z,19.8
2022-08-25T23:18:11.398Z,19.8
2022-08-25T23:21:17.432Z,19.8
2022-08-25T23:24:13.056Z,19.9
2022-08-25T23:27:13.796Z,20
2022-08-25T23:30:13.336Z,20
2022-08-25T23:33:13.027Z,20.1
2022-08-25T23:36:12.830Z,20.3
2022-08-25T23:39:14.121Z,20.3
2022-08-25T23:42:12.313Z,20.4
2022-08-25T23:45:13.402Z,20.5
2022-08-25T23:48:11.813Z,20.5
2022-08-25T23:51:12.276Z,20.5
2022-08-25T23:54:14.019Z,20.6
2022-08-25T23:57:16.957Z,20.6
